Terminal Aerodrome Forecast
Issued by NWS

Home | Current Version | Previous Version | Text Only | Print | Product List | Glossary On
Versions: 1 2 3 4 5 6 7 8 9 10 11 12 13
083
FTUS45 KABQ 192322
TAFROW
TAF
KROW 192322Z 2000/2024 16013KT P6SM FEW250
     FM200200 20006KT P6SM SCT250
     FM201800 17007KT P6SM FEW250
     FM202100 22011KT P6SM SCT250=

USA.gov is the U.S. government's official web portal to all federal, state and local government web resources and services.